sensor_id;sensor_type;location;lat;lon;timestamp;P1;durP1;ratioP1;P2;durP2;ratioP2
22176;SDS011;11254;50.098;8.726;2023-09-19T00:00:21;4.60;;;1.33;;
22176;SDS011;11254;50.098;8.726;2023-09-19T00:02:52;2.88;;;1.00;;
22176;SDS011;11254;50.098;8.726;2023-09-19T00:05:21;5.22;;;1.30;;
22176;SDS011;11254;50.098;8.726;2023-09-19T00:07:50;5.47;;;1.15;;
22176;SDS011;11254;50.098;8.726;2023-09-19T00:10:21;5.95;;;1.75;;
22176;SDS011;11254;50.098;8.726;2023-09-19T00:12:52;3.95;;;1.25;;
22176;SDS011;11254;50.098;8.726;2023-09-19T00:15:22;4.95;;;1.40;;
22176;SDS011;11254;50.098;8.726;2023-09-19T00:17:51;3.13;;;1.30;;
22176;SDS011;11254;50.098;8.726;2023-09-19T00:20:20;6.20;;;1.38;;
22176;SDS011;11254;50.098;8.726;2023-09-19T00:22:49;4.15;;;1.50;;
22176;SDS011;11254;50.098;8.726;2023-09-19T00:25:19;5.38;;;1.70;;
22176;SDS011;11254;50.098;8.726;2023-09-19T00:27:48;3.40;;;1.25;;
22176;SDS011;11254;50.098;8.726;2023-09-19T00:30:19;3.33;;;1.20;;
22176;SDS011;11254;50.098;8.726;2023-09-19T00:32:48;3.28;;;1.15;;
22176;SDS011;11254;50.098;8.726;2023-09-19T00:35:21;5.00;;;1.50;;
22176;SDS011;11254;50.098;8.726;2023-09-19T00:37:50;5.68;;;1.27;;
22176;SDS011;11254;50.098;8.726;2023-09-19T00:40:19;4.32;;;1.30;;
22176;SDS011;11254;50.098;8.726;2023-09-19T00:42:48;3.40;;;1.30;;
22176;SDS011;11254;50.098;8.726;2023-09-19T00:45:17;4.45;;;1.10;;
22176;SDS011;11254;50.098;8.726;2023-09-19T00:47:48;4.47;;;1.40;;
22176;SDS011;11254;50.098;8.726;2023-09-19T00:50:18;3.60;;;1.30;;
22176;SDS011;11254;50.098;8.726;2023-09-19T00:52:48;4.03;;;1.33;;
22176;SDS011;11254;50.098;8.726;2023-09-19T00:55:16;3.70;;;1.27;;
22176;SDS011;11254;50.098;8.726;2023-09-19T00:57:46;3.75;;;1.30;;
22176;SDS011;11254;50.098;8.726;2023-09-19T01:00:16;5.85;;;1.70;;
22176;SDS011;11254;50.098;8.726;2023-09-19T01:02:47;4.05;;;1.50;;
22176;SDS011;11254;50.098;8.726;2023-09-19T01:05:17;5.90;;;1.77;;
22176;SDS011;11254;50.098;8.726;2023-09-19T01:07:45;5.68;;;1.35;;
22176;SDS011;11254;50.098;8.726;2023-09-19T01:10:16;4.70;;;1.55;;
22176;SDS011;11254;50.098;8.726;2023-09-19T01:12:48;5.90;;;1.50;;
22176;SDS011;11254;50.098;8.726;2023-09-19T01:15:21;5.32;;;1.33;;
22176;SDS011;11254;50.098;8.726;2023-09-19T01:17:56;3.05;;;1.30;;
22176;SDS011;11254;50.098;8.726;2023-09-19T01:20:29;9.70;;;1.80;;
22176;SDS011;11254;50.098;8.726;2023-09-19T01:23:02;5.03;;;1.60;;
22176;SDS011;11254;50.098;8.726;2023-09-19T01:28:27;4.78;;;1.70;;
22176;SDS011;11254;50.098;8.726;2023-09-19T01:31:06;6.47;;;1.35;;
22176;SDS011;11254;50.098;8.726;2023-09-19T01:33:56;4.32;;;1.73;;
22176;SDS011;11254;50.098;8.726;2023-09-19T01:36:27;7.38;;;1.70;;
22176;SDS011;11254;50.098;8.726;2023-09-19T01:38:57;3.72;;;1.60;;
22176;SDS011;11254;50.098;8.726;2023-09-19T01:41:41;3.45;;;1.33;;
22176;SDS011;11254;50.098;8.726;2023-09-19T01:44:12;4.80;;;1.38;;
22176;SDS011;11254;50.098;8.726;2023-09-19T01:46:45;4.47;;;1.70;;
22176;SDS011;11254;50.098;8.726;2023-09-19T01:49:18;4.28;;;1.52;;
22176;SDS011;11254;50.098;8.726;2023-09-19T01:51:49;4.07;;;1.60;;
22176;SDS011;11254;50.098;8.726;2023-09-19T01:54:21;5.30;;;1.50;;
22176;SDS011;11254;50.098;8.726;2023-09-19T01:57:01;3.40;;;1.58;;
22176;SDS011;11254;50.098;8.726;2023-09-19T01:59:34;5.25;;;1.80;;
22176;SDS011;11254;50.098;8.726;2023-09-19T02:02:05;5.97;;;1.50;;
22176;SDS011;11254;50.098;8.726;2023-09-19T02:04:35;6.88;;;2.22;;
22176;SDS011;11254;50.098;8.726;2023-09-19T02:07:03;6.78;;;1.48;;
22176;SDS011;11254;50.098;8.726;2023-09-19T02:09:34;5.45;;;1.85;;
22176;SDS011;11254;50.098;8.726;2023-09-19T02:12:05;3.70;;;1.77;;
22176;SDS011;11254;50.098;8.726;2023-09-19T02:14:34;4.25;;;2.00;;
22176;SDS011;11254;50.098;8.726;2023-09-19T02:17:04;5.72;;;2.10;;
22176;SDS011;11254;50.098;8.726;2023-09-19T02:19:35;8.65;;;2.30;;
22176;SDS011;11254;50.098;8.726;2023-09-19T02:22:05;5.85;;;2.17;;
22176;SDS011;11254;50.098;8.726;2023-09-19T02:24:36;4.28;;;1.92;;
22176;SDS011;11254;50.098;8.726;2023-09-19T02:27:05;4.03;;;1.70;;
22176;SDS011;11254;50.098;8.726;2023-09-19T02:29:34;5.55;;;1.90;;
22176;SDS011;11254;50.098;8.726;2023-09-19T02:32:02;6.30;;;2.10;;
22176;SDS011;11254;50.098;8.726;2023-09-19T02:34:34;6.18;;;2.40;;
22176;SDS011;11254;50.098;8.726;2023-09-19T02:37:03;3.80;;;1.85;;
22176;SDS011;11254;50.098;8.726;2023-09-19T02:39:32;4.22;;;1.95;;
22176;SDS011;11254;50.098;8.726;2023-09-19T02:42:01;4.93;;;2.00;;
22176;SDS011;11254;50.098;8.726;2023-09-19T02:44:30;5.97;;;2.30;;
22176;SDS011;11254;50.098;8.726;2023-09-19T02:46:58;5.50;;;2.10;;
22176;SDS011;11254;50.098;8.726;2023-09-19T02:49:27;5.00;;;2.20;;
22176;SDS011;11254;50.098;8.726;2023-09-19T02:51:57;8.57;;;2.50;;
22176;SDS011;11254;50.098;8.726;2023-09-19T02:54:26;4.65;;;1.95;;
22176;SDS011;11254;50.098;8.726;2023-09-19T02:56:54;6.40;;;2.20;;
22176;SDS011;11254;50.098;8.726;2023-09-19T02:59:23;6.60;;;2.20;;
22176;SDS011;11254;50.098;8.726;2023-09-19T03:01:52;5.32;;;2.20;;
22176;SDS011;11254;50.098;8.726;2023-09-19T03:04:21;7.15;;;2.10;;
22176;SDS011;11254;50.098;8.726;2023-09-19T03:06:49;5.32;;;2.05;;
22176;SDS011;11254;50.098;8.726;2023-09-19T03:09:20;4.65;;;1.83;;
22176;SDS011;11254;50.098;8.726;2023-09-19T03:11:49;5.20;;;2.22;;
22176;SDS011;11254;50.098;8.726;2023-09-19T03:14:18;6.38;;;2.40;;
22176;SDS011;11254;50.098;8.726;2023-09-19T03:16:47;5.22;;;2.28;;
22176;SDS011;11254;50.098;8.726;2023-09-19T03:19:17;4.45;;;2.00;;
22176;SDS011;11254;50.098;8.726;2023-09-19T03:21:47;6.03;;;2.35;;
22176;SDS011;11254;50.098;8.726;2023-09-19T03:24:17;5.47;;;2.13;;
22176;SDS011;11254;50.098;8.726;2023-09-19T03:26:47;5.07;;;2.60;;
22176;SDS011;11254;50.098;8.726;2023-09-19T03:29:16;5.28;;;1.98;;
22176;SDS011;11254;50.098;8.726;2023-09-19T03:31:45;3.80;;;2.28;;
22176;SDS011;11254;50.098;8.726;2023-09-19T03:34:14;7.95;;;2.55;;
22176;SDS011;11254;50.098;8.726;2023-09-19T03:36:43;4.63;;;2.15;;
22176;SDS011;11254;50.098;8.726;2023-09-19T03:39:12;6.45;;;2.55;;
22176;SDS011;11254;50.098;8.726;2023-09-19T03:41:42;6.07;;;2.72;;
22176;SDS011;11254;50.098;8.726;2023-09-19T03:44:12;6.47;;;2.55;;
22176;SDS011;11254;50.098;8.726;2023-09-19T03:46:41;6.00;;;2.20;;
22176;SDS011;11254;50.098;8.726;2023-09-19T03:49:10;6.07;;;2.40;;
22176;SDS011;11254;50.098;8.726;2023-09-19T03:51:39;4.53;;;2.40;;
22176;SDS011;11254;50.098;8.726;2023-09-19T03:54:08;5.63;;;2.60;;
22176;SDS011;11254;50.098;8.726;2023-09-19T03:56:36;5.18;;;2.17;;
22176;SDS011;11254;50.098;8.726;2023-09-19T03:59:04;5.18;;;2.33;;
22176;SDS011;11254;50.098;8.726;2023-09-19T04:01:36;9.10;;;2.30;;
22176;SDS011;11254;50.098;8.726;2023-09-19T04:04:04;5.70;;;2.40;;
22176;SDS011;11254;50.098;8.726;2023-09-19T04:06:36;5.68;;;2.40;;
22176;SDS011;11254;50.098;8.726;2023-09-19T04:09:04;5.25;;;2.50;;
22176;SDS011;11254;50.098;8.726;2023-09-19T04:11:33;6.03;;;2.25;;
22176;SDS011;11254;50.098;8.726;2023-09-19T04:14:03;8.93;;;2.63;;
22176;SDS011;11254;50.098;8.726;2023-09-19T04:16:31;7.50;;;2.63;;
22176;SDS011;11254;50.098;8.726;2023-09-19T04:19:02;5.13;;;2.20;;
22176;SDS011;11254;50.098;8.726;2023-09-19T04:21:30;4.57;;;2.40;;
22176;SDS011;11254;50.098;8.726;2023-09-19T04:23:58;6.88;;;2.13;;
22176;SDS011;11254;50.098;8.726;2023-09-19T04:26:27;5.53;;;2.13;;
22176;SDS011;11254;50.098;8.726;2023-09-19T04:28:55;4.47;;;2.00;;
22176;SDS011;11254;50.098;8.726;2023-09-19T04:31:23;4.78;;;1.85;;
22176;SDS011;11254;50.098;8.726;2023-09-19T04:33:52;5.90;;;2.13;;
22176;SDS011;11254;50.098;8.726;2023-09-19T04:36:22;5.05;;;1.95;;
22176;SDS011;11254;50.098;8.726;2023-09-19T04:39:01;4.35;;;1.83;;
22176;SDS011;11254;50.098;8.726;2023-09-19T04:41:32;5.20;;;1.90;;
22176;SDS011;11254;50.098;8.726;2023-09-19T04:44:01;4.20;;;1.70;;
22176;SDS011;11254;50.098;8.726;2023-09-19T04:46:30;4.22;;;1.75;;
22176;SDS011;11254;50.098;8.726;2023-09-19T04:48:58;6.25;;;2.00;;
22176;SDS011;11254;50.098;8.726;2023-09-19T04:51:28;5.75;;;2.33;;
22176;SDS011;11254;50.098;8.726;2023-09-19T04:54:00;4.80;;;1.90;;
22176;SDS011;11254;50.098;8.726;2023-09-19T04:56:29;5.38;;;1.75;;
22176;SDS011;11254;50.098;8.726;2023-09-19T04:58:58;6.22;;;2.00;;
22176;SDS011;11254;50.098;8.726;2023-09-19T05:01:26;4.32;;;2.03;;
22176;SDS011;11254;50.098;8.726;2023-09-19T05:03:55;5.82;;;1.80;;
22176;SDS011;11254;50.098;8.726;2023-09-19T05:06:24;3.85;;;1.75;;
22176;SDS011;11254;50.098;8.726;2023-09-19T05:08:54;4.05;;;1.70;;
22176;SDS011;11254;50.098;8.726;2023-09-19T05:11:22;6.75;;;2.25;;
22176;SDS011;11254;50.098;8.726;2023-09-19T05:13:51;5.95;;;2.00;;
22176;SDS011;11254;50.098;8.726;2023-09-19T05:16:19;3.97;;;2.00;;
22176;SDS011;11254;50.098;8.726;2023-09-19T05:18:48;6.00;;;1.85;;
22176;SDS011;11254;50.098;8.726;2023-09-19T05:21:17;6.78;;;2.30;;
22176;SDS011;11254;50.098;8.726;2023-09-19T05:23:46;5.22;;;2.20;;
22176;SDS011;11254;50.098;8.726;2023-09-19T05:26:17;6.85;;;2.20;;
22176;SDS011;11254;50.098;8.726;2023-09-19T05:28:46;7.35;;;1.92;;
22176;SDS011;11254;50.098;8.726;2023-09-19T05:31:15;5.45;;;2.30;;
22176;SDS011;11254;50.098;8.726;2023-09-19T05:33:43;5.97;;;2.42;;
22176;SDS011;11254;50.098;8.726;2023-09-19T05:36:12;8.48;;;2.40;;
22176;SDS011;11254;50.098;8.726;2023-09-19T05:38:42;7.32;;;2.20;;
22176;SDS011;11254;50.098;8.726;2023-09-19T05:41:11;8.30;;;2.30;;
22176;SDS011;11254;50.098;8.726;2023-09-19T05:43:42;4.78;;;2.33;;
22176;SDS011;11254;50.098;8.726;2023-09-19T05:46:10;5.75;;;2.35;;
22176;SDS011;11254;50.098;8.726;2023-09-19T05:48:38;5.45;;;2.08;;
22176;SDS011;11254;50.098;8.726;2023-09-19T05:51:08;4.45;;;2.10;;
22176;SDS011;11254;50.098;8.726;2023-09-19T05:53:36;7.03;;;2.00;;
22176;SDS011;11254;50.098;8.726;2023-09-19T05:56:05;4.00;;;2.00;;
22176;SDS011;11254;50.098;8.726;2023-09-19T05:58:33;4.82;;;1.90;;
22176;SDS011;11254;50.098;8.726;2023-09-19T06:01:03;5.43;;;1.90;;
22176;SDS011;11254;50.098;8.726;2023-09-19T06:03:34;5.70;;;1.70;;
22176;SDS011;11254;50.098;8.726;2023-09-19T06:06:06;5.47;;;1.98;;
22176;SDS011;11254;50.098;8.726;2023-09-19T06:08:39;4.35;;;1.80;;
22176;SDS011;11254;50.098;8.726;2023-09-19T06:11:10;4.47;;;2.08;;
22176;SDS011;11254;50.098;8.726;2023-09-19T06:13:38;7.88;;;2.08;;
22176;SDS011;11254;50.098;8.726;2023-09-19T06:16:09;5.00;;;2.08;;
22176;SDS011;11254;50.098;8.726;2023-09-19T06:18:37;5.45;;;1.88;;
22176;SDS011;11254;50.098;8.726;2023-09-19T06:21:06;5.72;;;2.13;;
22176;SDS011;11254;50.098;8.726;2023-09-19T06:23:34;6.25;;;2.00;;
22176;SDS011;11254;50.098;8.726;2023-09-19T06:26:03;4.93;;;1.85;;
22176;SDS011;11254;50.098;8.726;2023-09-19T06:28:33;7.05;;;2.63;;
22176;SDS011;11254;50.098;8.726;2023-09-19T06:31:01;5.45;;;2.25;;
22176;SDS011;11254;50.098;8.726;2023-09-19T06:33:35;5.20;;;2.40;;
22176;SDS011;11254;50.098;8.726;2023-09-19T06:36:06;5.45;;;2.50;;
22176;SDS011;11254;50.098;8.726;2023-09-19T06:38:34;5.55;;;1.92;;
22176;SDS011;11254;50.098;8.726;2023-09-19T06:41:03;6.72;;;2.38;;
22176;SDS011;11254;50.098;8.726;2023-09-19T06:43:33;8.75;;;2.72;;
22176;SDS011;11254;50.098;8.726;2023-09-19T06:46:02;5.32;;;2.22;;
22176;SDS011;11254;50.098;8.726;2023-09-19T06:48:31;6.93;;;2.38;;
22176;SDS011;11254;50.098;8.726;2023-09-19T06:51:01;8.48;;;2.60;;
22176;SDS011;11254;50.098;8.726;2023-09-19T06:53:31;7.15;;;2.50;;
22176;SDS011;11254;50.098;8.726;2023-09-19T06:56:01;6.30;;;2.33;;
22176;SDS011;11254;50.098;8.726;2023-09-19T06:58:29;7.43;;;2.13;;
22176;SDS011;11254;50.098;8.726;2023-09-19T07:01:00;6.25;;;2.58;;
22176;SDS011;11254;50.098;8.726;2023-09-19T07:03:37;5.90;;;2.28;;
22176;SDS011;11254;50.098;8.726;2023-09-19T07:06:14;4.57;;;2.03;;
22176;SDS011;11254;50.098;8.726;2023-09-19T07:08:44;6.15;;;2.90;;
22176;SDS011;11254;50.098;8.726;2023-09-19T07:11:12;5.45;;;2.53;;
22176;SDS011;11254;50.098;8.726;2023-09-19T07:13:44;6.95;;;2.22;;
22176;SDS011;11254;50.098;8.726;2023-09-19T07:16:13;5.32;;;1.80;;
22176;SDS011;11254;50.098;8.726;2023-09-19T07:18:54;5.50;;;1.85;;
22176;SDS011;11254;50.098;8.726;2023-09-19T07:21:24;5.28;;;2.10;;
22176;SDS011;11254;50.098;8.726;2023-09-19T07:23:55;3.88;;;1.33;;
22176;SDS011;11254;50.098;8.726;2023-09-19T07:26:23;5.32;;;2.25;;
22176;SDS011;11254;50.098;8.726;2023-09-19T07:28:52;5.30;;;2.05;;
22176;SDS011;11254;50.098;8.726;2023-09-19T07:31:21;6.72;;;2.20;;
22176;SDS011;11254;50.098;8.726;2023-09-19T07:33:49;7.88;;;1.90;;
22176;SDS011;11254;50.098;8.726;2023-09-19T07:36:17;3.88;;;1.67;;
22176;SDS011;11254;50.098;8.726;2023-09-19T07:38:47;4.35;;;1.75;;
22176;SDS011;11254;50.098;8.726;2023-09-19T07:41:16;7.65;;;2.13;;
22176;SDS011;11254;50.098;8.726;2023-09-19T07:43:44;6.40;;;1.60;;
22176;SDS011;11254;50.098;8.726;2023-09-19T07:46:16;8.93;;;1.85;;
22176;SDS011;11254;50.098;8.726;2023-09-19T07:48:48;4.80;;;1.75;;
22176;SDS011;11254;50.098;8.726;2023-09-19T07:51:19;4.35;;;1.58;;
22176;SDS011;11254;50.098;8.726;2023-09-19T07:53:49;6.55;;;2.13;;
22176;SDS011;11254;50.098;8.726;2023-09-19T07:56:17;7.13;;;1.70;;
22176;SDS011;11254;50.098;8.726;2023-09-19T07:58:48;4.88;;;1.70;;
22176;SDS011;11254;50.098;8.726;2023-09-19T08:01:20;4.40;;;1.67;;
22176;SDS011;11254;50.098;8.726;2023-09-19T08:03:54;5.63;;;1.70;;
22176;SDS011;11254;50.098;8.726;2023-09-19T08:06:23;5.88;;;2.00;;
22176;SDS011;11254;50.098;8.726;2023-09-19T08:09:03;5.10;;;1.60;;
22176;SDS011;11254;50.098;8.726;2023-09-19T08:11:34;5.95;;;1.75;;
22176;SDS011;11254;50.098;8.726;2023-09-19T08:14:02;5.00;;;1.50;;
22176;SDS011;11254;50.098;8.726;2023-09-19T08:16:36;7.28;;;1.80;;
22176;SDS011;11254;50.098;8.726;2023-09-19T08:19:11;6.07;;;1.80;;
22176;SDS011;11254;50.098;8.726;2023-09-19T08:21:44;5.35;;;1.70;;
22176;SDS011;11254;50.098;8.726;2023-09-19T08:24:18;4.05;;;1.48;;
22176;SDS011;11254;50.098;8.726;2023-09-19T08:26:48;5.72;;;1.50;;
22176;SDS011;11254;50.098;8.726;2023-09-19T08:29:22;4.95;;;1.77;;
22176;SDS011;11254;50.098;8.726;2023-09-19T08:32:02;4.72;;;1.40;;
22176;SDS011;11254;50.098;8.726;2023-09-19T08:34:39;6.22;;;1.60;;
22176;SDS011;11254;50.098;8.726;2023-09-19T08:37:11;5.90;;;1.75;;
22176;SDS011;11254;50.098;8.726;2023-09-19T08:39:42;4.35;;;1.17;;
22176;SDS011;11254;50.098;8.726;2023-09-19T08:42:12;4.10;;;1.30;;
22176;SDS011;11254;50.098;8.726;2023-09-19T08:44:45;4.65;;;1.40;;
22176;SDS011;11254;50.098;8.726;2023-09-19T08:47:18;3.53;;;1.30;;
22176;SDS011;11254;50.098;8.726;2023-09-19T08:50:07;6.40;;;1.85;;
22176;SDS011;11254;50.098;8.726;2023-09-19T08:52:42;4.68;;;1.48;;
22176;SDS011;11254;50.098;8.726;2023-09-19T08:55:23;4.20;;;1.33;;
22176;SDS011;11254;50.098;8.726;2023-09-19T08:58:00;5.57;;;1.42;;
22176;SDS011;11254;50.098;8.726;2023-09-19T09:00:37;5.35;;;1.30;;
22176;SDS011;11254;50.098;8.726;2023-09-19T09:03:18;6.80;;;1.50;;
22176;SDS011;11254;50.098;8.726;2023-09-19T09:05:53;6.72;;;1.33;;
22176;SDS011;11254;50.098;8.726;2023-09-19T09:08:28;5.10;;;1.50;;
22176;SDS011;11254;50.098;8.726;2023-09-19T09:11:14;8.15;;;1.58;;
22176;SDS011;11254;50.098;8.726;2023-09-19T09:13:53;4.63;;;1.60;;
22176;SDS011;11254;50.098;8.726;2023-09-19T09:16:27;4.72;;;1.58;;
22176;SDS011;11254;50.098;8.726;2023-09-19T09:19:01;3.10;;;1.27;;
22176;SDS011;11254;50.098;8.726;2023-09-19T09:21:36;5.32;;;1.27;;
22176;SDS011;11254;50.098;8.726;2023-09-19T09:24:30;5.90;;;1.70;;
22176;SDS011;11254;50.098;8.726;2023-09-19T09:27:06;3.53;;;1.40;;
22176;SDS011;11254;50.098;8.726;2023-09-19T09:29:41;3.83;;;1.42;;
22176;SDS011;11254;50.098;8.726;2023-09-19T09:32:19;3.92;;;1.33;;
22176;SDS011;11254;50.098;8.726;2023-09-19T09:34:53;5.05;;;1.60;;
22176;SDS011;11254;50.098;8.726;2023-09-19T09:37:28;8.98;;;1.60;;
22176;SDS011;11254;50.098;8.726;2023-09-19T09:40:01;8.50;;;1.70;;
22176;SDS011;11254;50.098;8.726;2023-09-19T09:42:48;4.35;;;1.33;;
22176;SDS011;11254;50.098;8.726;2023-09-19T09:45:26;6.82;;;1.60;;
22176;SDS011;11254;50.098;8.726;2023-09-19T09:48:04;4.18;;;1.20;;
22176;SDS011;11254;50.098;8.726;2023-09-19T09:50:46;5.85;;;1.65;;
22176;SDS011;11254;50.098;8.726;2023-09-19T09:53:28;5.22;;;1.40;;
22176;SDS011;11254;50.098;8.726;2023-09-19T09:56:00;7.55;;;1.60;;
22176;SDS011;11254;50.098;8.726;2023-09-19T09:58:38;7.32;;;1.77;;
22176;SDS011;11254;50.098;8.726;2023-09-19T10:01:26;4.72;;;1.83;;
22176;SDS011;11254;50.098;8.726;2023-09-19T10:04:03;6.10;;;1.70;;
22176;SDS011;11254;50.098;8.726;2023-09-19T10:06:40;5.70;;;1.55;;
22176;SDS011;11254;50.098;8.726;2023-09-19T10:09:16;5.75;;;1.42;;
22176;SDS011;11254;50.098;8.726;2023-09-19T10:12:00;5.30;;;1.50;;
22176;SDS011;11254;50.098;8.726;2023-09-19T10:14:47;6.10;;;1.73;;
22176;SDS011;11254;50.098;8.726;2023-09-19T10:17:19;6.63;;;1.67;;
22176;SDS011;11254;50.098;8.726;2023-09-19T10:19:53;5.85;;;1.75;;
22176;SDS011;11254;50.098;8.726;2023-09-19T10:22:26;5.97;;;1.90;;
22176;SDS011;11254;50.098;8.726;2023-09-19T10:25:05;5.25;;;1.52;;
22176;SDS011;11254;50.098;8.726;2023-09-19T10:27:36;6.40;;;2.05;;
22176;SDS011;11254;50.098;8.726;2023-09-19T10:30:17;6.43;;;1.80;;
22176;SDS011;11254;50.098;8.726;2023-09-19T10:32:54;6.25;;;1.95;;
22176;SDS011;11254;50.098;8.726;2023-09-19T10:35:30;8.02;;;1.77;;
22176;SDS011;11254;50.098;8.726;2023-09-19T10:38:04;9.13;;;1.45;;
22176;SDS011;11254;50.098;8.726;2023-09-19T10:40:40;10.35;;;1.98;;
22176;SDS011;11254;50.098;8.726;2023-09-19T10:43:15;6.90;;;1.80;;
22176;SDS011;11254;50.098;8.726;2023-09-19T10:46:00;5.03;;;1.58;;
22176;SDS011;11254;50.098;8.726;2023-09-19T10:48:37;3.97;;;1.70;;
22176;SDS011;11254;50.098;8.726;2023-09-19T10:51:18;8.63;;;2.03;;
22176;SDS011;11254;50.098;8.726;2023-09-19T10:54:01;7.45;;;1.80;;
22176;SDS011;11254;50.098;8.726;2023-09-19T10:56:43;8.27;;;2.15;;
22176;SDS011;11254;50.098;8.726;2023-09-19T10:59:19;5.65;;;1.70;;
22176;SDS011;11254;50.098;8.726;2023-09-19T11:01:52;5.68;;;1.98;;
22176;SDS011;11254;50.098;8.726;2023-09-19T11:04:30;4.80;;;1.70;;
22176;SDS011;11254;50.098;8.726;2023-09-19T11:07:05;4.47;;;1.52;;
22176;SDS011;11254;50.098;8.726;2023-09-19T11:09:45;11.43;;;1.63;;
22176;SDS011;11254;50.098;8.726;2023-09-19T11:15:07;5.65;;;1.60;;
22176;SDS011;11254;50.098;8.726;2023-09-19T11:17:49;5.57;;;1.90;;
22176;SDS011;11254;50.098;8.726;2023-09-19T11:20:22;7.22;;;1.60;;
22176;SDS011;11254;50.098;8.726;2023-09-19T11:23:22;8.30;;;2.10;;
22176;SDS011;11254;50.098;8.726;2023-09-19T11:25:52;4.20;;;1.33;;
22176;SDS011;11254;50.098;8.726;2023-09-19T11:28:28;4.80;;;1.55;;
22176;SDS011;11254;50.098;8.726;2023-09-19T11:40:07;8.10;;;1.95;;
22176;SDS011;11254;50.098;8.726;2023-09-19T11:42:43;5.22;;;1.63;;
22176;SDS011;11254;50.098;8.726;2023-09-19T11:48:18;7.43;;;1.42;;
22176;SDS011;11254;50.098;8.726;2023-09-19T11:51:01;9.30;;;1.73;;
22176;SDS011;11254;50.098;8.726;2023-09-19T11:53:41;5.47;;;1.73;;
22176;SDS011;11254;50.098;8.726;2023-09-19T11:56:13;8.40;;;1.95;;
22176;SDS011;11254;50.098;8.726;2023-09-19T11:58:44;7.78;;;1.65;;
22176;SDS011;11254;50.098;8.726;2023-09-19T12:01:16;5.07;;;1.70;;
22176;SDS011;11254;50.098;8.726;2023-09-19T12:03:58;5.43;;;1.48;;
22176;SDS011;11254;50.098;8.726;2023-09-19T12:06:34;4.93;;;1.65;;
22176;SDS011;11254;50.098;8.726;2023-09-19T12:09:14;5.68;;;1.58;;
22176;SDS011;11254;50.098;8.726;2023-09-19T12:11:54;5.20;;;1.63;;
22176;SDS011;11254;50.098;8.726;2023-09-19T12:14:40;6.53;;;1.60;;
22176;SDS011;11254;50.098;8.726;2023-09-19T12:17:12;6.43;;;1.45;;
22176;SDS011;11254;50.098;8.726;2023-09-19T12:19:50;5.68;;;1.50;;
22176;SDS011;11254;50.098;8.726;2023-09-19T12:22:20;7.10;;;1.70;;
22176;SDS011;11254;50.098;8.726;2023-09-19T12:25:02;4.82;;;1.38;;
22176;SDS011;11254;50.098;8.726;2023-09-19T12:27:47;7.47;;;1.50;;
22176;SDS011;11254;50.098;8.726;2023-09-19T12:30:27;5.15;;;1.40;;
22176;SDS011;11254;50.098;8.726;2023-09-19T12:33:03;6.32;;;1.42;;
22176;SDS011;11254;50.098;8.726;2023-09-19T12:35:38;6.07;;;1.20;;
22176;SDS011;11254;50.098;8.726;2023-09-19T12:38:11;7.70;;;1.42;;
22176;SDS011;11254;50.098;8.726;2023-09-19T12:40:43;5.15;;;1.58;;
22176;SDS011;11254;50.098;8.726;2023-09-19T12:43:15;8.18;;;1.45;;
22176;SDS011;11254;50.098;8.726;2023-09-19T12:45:43;5.43;;;1.30;;
22176;SDS011;11254;50.098;8.726;2023-09-19T12:48:21;5.93;;;1.40;;
22176;SDS011;11254;50.098;8.726;2023-09-19T12:51:01;6.18;;;1.75;;
22176;SDS011;11254;50.098;8.726;2023-09-19T12:53:33;6.10;;;1.33;;
22176;SDS011;11254;50.098;8.726;2023-09-19T12:56:09;5.00;;;1.42;;
22176;SDS011;11254;50.098;8.726;2023-09-19T12:59:01;6.50;;;1.40;;
22176;SDS011;11254;50.098;8.726;2023-09-19T13:01:42;5.28;;;1.30;;
22176;SDS011;11254;50.098;8.726;2023-09-19T13:04:16;9.55;;;1.70;;
22176;SDS011;11254;50.098;8.726;2023-09-19T13:06:55;5.43;;;1.10;;
22176;SDS011;11254;50.098;8.726;2023-09-19T13:09:29;5.13;;;1.45;;
22176;SDS011;11254;50.098;8.726;2023-09-19T13:12:03;4.30;;;1.27;;
22176;SDS011;11254;50.098;8.726;2023-09-19T13:14:41;5.10;;;1.10;;
22176;SDS011;11254;50.098;8.726;2023-09-19T13:17:20;4.35;;;1.02;;
22176;SDS011;11254;50.098;8.726;2023-09-19T13:19:59;5.25;;;1.30;;
22176;SDS011;11254;50.098;8.726;2023-09-19T13:22:38;5.07;;;1.10;;
22176;SDS011;11254;50.098;8.726;2023-09-19T13:25:13;7.15;;;1.20;;
22176;SDS011;11254;50.098;8.726;2023-09-19T13:27:49;4.20;;;1.17;;
22176;SDS011;11254;50.098;8.726;2023-09-19T13:30:21;3.47;;;1.35;;
22176;SDS011;11254;50.098;8.726;2023-09-19T13:32:51;5.20;;;1.17;;
22176;SDS011;11254;50.098;8.726;2023-09-19T13:35:22;9.82;;;1.50;;
22176;SDS011;11254;50.098;8.726;2023-09-19T13:37:53;5.20;;;1.40;;
22176;SDS011;11254;50.098;8.726;2023-09-19T13:40:23;5.80;;;1.55;;
22176;SDS011;11254;50.098;8.726;2023-09-19T13:42:58;4.38;;;1.25;;
22176;SDS011;11254;50.098;8.726;2023-09-19T13:45:32;4.97;;;1.50;;
22176;SDS011;11254;50.098;8.726;2023-09-19T13:48:05;5.03;;;1.17;;
22176;SDS011;11254;50.098;8.726;2023-09-19T13:50:42;6.47;;;1.38;;
22176;SDS011;11254;50.098;8.726;2023-09-19T13:53:14;4.18;;;1.38;;
22176;SDS011;11254;50.098;8.726;2023-09-19T13:55:44;4.70;;;1.20;;
22176;SDS011;11254;50.098;8.726;2023-09-19T13:58:15;9.52;;;1.48;;
22176;SDS011;11254;50.098;8.726;2023-09-19T14:00:52;6.05;;;1.50;;
22176;SDS011;11254;50.098;8.726;2023-09-19T14:03:25;5.00;;;1.15;;
22176;SDS011;11254;50.098;8.726;2023-09-19T14:05:55;4.28;;;1.10;;
22176;SDS011;11254;50.098;8.726;2023-09-19T14:08:37;4.85;;;1.15;;
22176;SDS011;11254;50.098;8.726;2023-09-19T14:11:11;3.67;;;1.10;;
22176;SDS011;11254;50.098;8.726;2023-09-19T14:13:40;5.35;;;1.20;;
22176;SDS011;11254;50.098;8.726;2023-09-19T14:16:22;4.35;;;1.20;;
22176;SDS011;11254;50.098;8.726;2023-09-19T14:19:02;4.68;;;1.23;;
22176;SDS011;11254;50.098;8.726;2023-09-19T14:21:30;5.22;;;1.30;;
22176;SDS011;11254;50.098;8.726;2023-09-19T14:24:03;4.20;;;1.02;;
22176;SDS011;11254;50.098;8.726;2023-09-19T14:26:40;6.65;;;1.23;;
22176;SDS011;11254;50.098;8.726;2023-09-19T14:29:17;4.13;;;1.10;;
22176;SDS011;11254;50.098;8.726;2023-09-19T14:31:51;4.97;;;1.40;;
22176;SDS011;11254;50.098;8.726;2023-09-19T14:34:24;5.93;;;1.50;;
22176;SDS011;11254;50.098;8.726;2023-09-19T14:36:55;3.63;;;1.17;;
22176;SDS011;11254;50.098;8.726;2023-09-19T14:39:29;5.10;;;1.10;;
22176;SDS011;11254;50.098;8.726;2023-09-19T14:42:01;6.45;;;1.30;;
22176;SDS011;11254;50.098;8.726;2023-09-19T14:44:42;4.13;;;1.33;;
22176;SDS011;11254;50.098;8.726;2023-09-19T14:47:21;3.75;;;1.20;;
22176;SDS011;11254;50.098;8.726;2023-09-19T14:49:57;3.83;;;1.38;;
22176;SDS011;11254;50.098;8.726;2023-09-19T14:52:26;3.47;;;1.20;;
22176;SDS011;11254;50.098;8.726;2023-09-19T14:54:58;5.50;;;1.60;;
22176;SDS011;11254;50.098;8.726;2023-09-19T14:57:34;6.20;;;1.90;;
22176;SDS011;11254;50.098;8.726;2023-09-19T15:00:11;5.00;;;1.80;;
22176;SDS011;11254;50.098;8.726;2023-09-19T15:02:44;5.07;;;2.03;;
22176;SDS011;11254;50.098;8.726;2023-09-19T15:05:17;6.75;;;2.00;;
22176;SDS011;11254;50.098;8.726;2023-09-19T15:07:47;4.57;;;1.60;;
22176;SDS011;11254;50.098;8.726;2023-09-19T15:10:16;4.78;;;0.98;;
22176;SDS011;11254;50.098;8.726;2023-09-19T15:12:46;6.45;;;1.30;;
22176;SDS011;11254;50.098;8.726;2023-09-19T15:15:16;5.80;;;1.55;;
22176;SDS011;11254;50.098;8.726;2023-09-19T15:17:48;5.88;;;1.35;;
22176;SDS011;11254;50.098;8.726;2023-09-19T15:20:17;3.47;;;1.02;;
22176;SDS011;11254;50.098;8.726;2023-09-19T15:22:46;3.67;;;1.08;;
22176;SDS011;11254;50.098;8.726;2023-09-19T15:25:17;3.42;;;1.10;;
22176;SDS011;11254;50.098;8.726;2023-09-19T15:27:51;3.78;;;1.15;;
22176;SDS011;11254;50.098;8.726;2023-09-19T15:30:25;5.47;;;1.40;;
22176;SDS011;11254;50.098;8.726;2023-09-19T15:32:57;4.47;;;1.30;;
22176;SDS011;11254;50.098;8.726;2023-09-19T15:35:38;5.45;;;1.45;;
22176;SDS011;11254;50.098;8.726;2023-09-19T15:38:16;6.47;;;1.55;;